sensor_id;sensor_type;location;lat;lon;timestamp;temperature;humidity
56729;DHT22;42612;52.232;7.560;2022-12-07T00:01:44;9.80;63.10
56729;DHT22;42612;52.232;7.560;2022-12-07T00:04:12;9.70;63.00
56729;DHT22;42612;52.232;7.560;2022-12-07T00:06:40;9.70;63.10
56729;DHT22;42612;52.232;7.560;2022-12-07T00:09:08;9.70;63.00
56729;DHT22;42612;52.232;7.560;2022-12-07T00:11:36;9.70;63.10
56729;DHT22;42612;52.232;7.560;2022-12-07T00:14:03;9.70;63.20
56729;DHT22;42612;52.232;7.560;2022-12-07T00:16:31;9.60;63.10
56729;DHT22;42612;52.232;7.560;2022-12-07T00:18:58;9.60;63.20
56729;DHT22;42612;52.232;7.560;2022-12-07T00:21:25;9.60;63.10
56729;DHT22;42612;52.232;7.560;2022-12-07T00:23:52;9.60;63.10
56729;DHT22;42612;52.232;7.560;2022-12-07T00:26:40;9.60;63.10
56729;DHT22;42612;52.232;7.560;2022-12-07T00:29:17;9.50;63.20
56729;DHT22;42612;52.232;7.560;2022-12-07T00:31:44;9.50;63.30
56729;DHT22;42612;52.232;7.560;2022-12-07T00:34:12;9.50;63.20
56729;DHT22;42612;52.232;7.560;2022-12-07T00:36:39;9.50;63.20
56729;DHT22;42612;52.232;7.560;2022-12-07T00:39:04;9.50;63.20
56729;DHT22;42612;52.232;7.560;2022-12-07T00:41:30;9.50;63.20
56729;DHT22;42612;52.232;7.560;2022-12-07T00:43:56;9.50;63.30
56729;DHT22;42612;52.232;7.560;2022-12-07T00:46:22;9.50;63.30
56729;DHT22;42612;52.232;7.560;2022-12-07T00:48:49;9.50;63.30
56729;DHT22;42612;52.232;7.560;2022-12-07T00:51:16;9.50;63.20
56729;DHT22;42612;52.232;7.560;2022-12-07T00:53:42;9.50;63.20
56729;DHT22;42612;52.232;7.560;2022-12-07T00:56:12;9.50;63.10
56729;DHT22;42612;52.232;7.560;2022-12-07T00:58:39;9.50;63.20
56729;DHT22;42612;52.232;7.560;2022-12-07T01:01:05;9.50;63.10
56729;DHT22;42612;52.232;7.560;2022-12-07T01:03:32;9.50;63.10
56729;DHT22;42612;52.232;7.560;2022-12-07T01:05:58;9.50;63.10
56729;DHT22;42612;52.232;7.560;2022-12-07T01:08:24;9.50;63.00
56729;DHT22;42612;52.232;7.560;2022-12-07T01:11:01;9.50;63.10
56729;DHT22;42612;52.232;7.560;2022-12-07T01:13:29;9.50;62.90
56729;DHT22;42612;52.232;7.560;2022-12-07T01:15:58;9.50;62.90
56729;DHT22;42612;52.232;7.560;2022-12-07T01:18:26;9.40;62.80
56729;DHT22;42612;52.232;7.560;2022-12-07T01:20:59;9.50;62.90
56729;DHT22;42612;52.232;7.560;2022-12-07T01:23:29;9.40;62.70
56729;DHT22;42612;52.232;7.560;2022-12-07T01:25:58;9.40;62.70
56729;DHT22;42612;52.232;7.560;2022-12-07T01:28:26;9.40;62.70
56729;DHT22;42612;52.232;7.560;2022-12-07T01:31:05;9.30;62.60
56729;DHT22;42612;52.232;7.560;2022-12-07T01:33:33;9.30;62.70
56729;DHT22;42612;52.232;7.560;2022-12-07T01:36:21;9.30;62.70
56729;DHT22;42612;52.232;7.560;2022-12-07T01:38:51;9.20;62.60
56729;DHT22;42612;52.232;7.560;2022-12-07T01:41:22;9.20;62.70
56729;DHT22;42612;52.232;7.560;2022-12-07T01:46:40;9.10;63.20
56729;DHT22;42612;52.232;7.560;2022-12-07T01:49:18;9.10;62.60
56729;DHT22;42612;52.232;7.560;2022-12-07T01:51:49;9.10;62.60
56729;DHT22;42612;52.232;7.560;2022-12-07T01:54:17;9.00;62.60
56729;DHT22;42612;52.232;7.560;2022-12-07T01:56:44;9.00;62.70
56729;DHT22;42612;52.232;7.560;2022-12-07T01:59:14;9.00;62.60
56729;DHT22;42612;52.232;7.560;2022-12-07T02:01:40;9.00;62.70
56729;DHT22;42612;52.232;7.560;2022-12-07T02:04:06;9.00;62.60
56729;DHT22;42612;52.232;7.560;2022-12-07T02:06:31;9.00;62.70
56729;DHT22;42612;52.232;7.560;2022-12-07T02:08:57;9.00;62.70
56729;DHT22;42612;52.232;7.560;2022-12-07T02:11:22;9.00;62.60
56729;DHT22;42612;52.232;7.560;2022-12-07T02:13:48;9.00;62.60
56729;DHT22;42612;52.232;7.560;2022-12-07T02:26:52;8.90;62.40
56729;DHT22;42612;52.232;7.560;2022-12-07T02:32:26;8.80;62.30
56729;DHT22;42612;52.232;7.560;2022-12-07T02:35:05;8.80;62.30
56729;DHT22;42612;52.232;7.560;2022-12-07T02:37:46;8.80;62.30
56729;DHT22;42612;52.232;7.560;2022-12-07T02:42:59;8.70;62.20
56729;DHT22;42612;52.232;7.560;2022-12-07T02:45:29;8.70;62.30
56729;DHT22;42612;52.232;7.560;2022-12-07T02:47:56;8.60;62.30
56729;DHT22;42612;52.232;7.560;2022-12-07T02:50:24;8.60;62.30
56729;DHT22;42612;52.232;7.560;2022-12-07T02:52:49;8.60;62.40
56729;DHT22;42612;52.232;7.560;2022-12-07T02:55:15;8.60;62.40
56729;DHT22;42612;52.232;7.560;2022-12-07T02:57:47;8.60;62.40
56729;DHT22;42612;52.232;7.560;2022-12-07T03:00:19;8.60;62.30
56729;DHT22;42612;52.232;7.560;2022-12-07T03:02:53;8.50;62.30
56729;DHT22;42612;52.232;7.560;2022-12-07T03:11:09;8.50;62.50
56729;DHT22;42612;52.232;7.560;2022-12-07T03:13:59;8.50;62.50
56729;DHT22;42612;52.232;7.560;2022-12-07T03:16:26;8.40;62.40
56729;DHT22;42612;52.232;7.560;2022-12-07T03:19:00;8.40;62.40
56729;DHT22;42612;52.232;7.560;2022-12-07T03:21:46;8.40;62.40
56729;DHT22;42612;52.232;7.560;2022-12-07T03:24:16;8.40;62.40
56729;DHT22;42612;52.232;7.560;2022-12-07T03:26:46;8.40;62.40
56729;DHT22;42612;52.232;7.560;2022-12-07T03:29:19;8.40;62.40
56729;DHT22;42612;52.232;7.560;2022-12-07T03:32:01;8.30;62.40
56729;DHT22;42612;52.232;7.560;2022-12-07T03:34:34;8.30;62.30
56729;DHT22;42612;52.232;7.560;2022-12-07T03:37:10;8.30;62.30
56729;DHT22;42612;52.232;7.560;2022-12-07T03:39:54;8.30;62.30
56729;DHT22;42612;52.232;7.560;2022-12-07T03:42:24;8.20;62.30
56729;DHT22;42612;52.232;7.560;2022-12-07T03:44:50;8.20;62.40
56729;DHT22;42612;52.232;7.560;2022-12-07T03:47:17;8.20;62.40
56729;DHT22;42612;52.232;7.560;2022-12-07T03:49:54;8.20;62.40
56729;DHT22;42612;52.232;7.560;2022-12-07T03:52:40;8.20;62.40
56729;DHT22;42612;52.232;7.560;2022-12-07T03:57:40;8.20;62.40
56729;DHT22;42612;52.232;7.560;2022-12-07T04:00:06;8.20;62.40
56729;DHT22;42612;52.232;7.560;2022-12-07T04:02:33;8.20;62.50
56729;DHT22;42612;52.232;7.560;2022-12-07T04:04:59;8.20;62.50
56729;DHT22;42612;52.232;7.560;2022-12-07T04:07:25;8.20;62.50
56729;DHT22;42612;52.232;7.560;2022-12-07T04:09:50;8.20;62.50
56729;DHT22;42612;52.232;7.560;2022-12-07T04:12:16;8.20;62.50
56729;DHT22;42612;52.232;7.560;2022-12-07T04:14:41;8.20;62.60
56729;DHT22;42612;52.232;7.560;2022-12-07T04:17:08;8.20;62.60
56729;DHT22;42612;52.232;7.560;2022-12-07T04:19:34;8.20;62.70
56729;DHT22;42612;52.232;7.560;2022-12-07T04:22:00;8.30;62.70
56729;DHT22;42612;52.232;7.560;2022-12-07T04:24:28;8.30;62.70
56729;DHT22;42612;52.232;7.560;2022-12-07T04:26:53;8.30;62.60
56729;DHT22;42612;52.232;7.560;2022-12-07T04:29:19;8.30;62.60
56729;DHT22;42612;52.232;7.560;2022-12-07T04:31:45;8.40;62.70
56729;DHT22;42612;52.232;7.560;2022-12-07T04:34:11;8.40;62.60
56729;DHT22;42612;52.232;7.560;2022-12-07T04:36:38;8.40;62.60
56729;DHT22;42612;52.232;7.560;2022-12-07T04:39:05;8.40;62.50
56729;DHT22;42612;52.232;7.560;2022-12-07T04:41:31;8.40;62.50
56729;DHT22;42612;52.232;7.560;2022-12-07T04:43:58;8.40;62.50
56729;DHT22;42612;52.232;7.560;2022-12-07T04:46:25;8.40;62.40
56729;DHT22;42612;52.232;7.560;2022-12-07T04:48:53;8.40;62.40
56729;DHT22;42612;52.232;7.560;2022-12-07T04:51:21;8.40;62.40
56729;DHT22;42612;52.232;7.560;2022-12-07T04:53:48;8.40;62.40
56729;DHT22;42612;52.232;7.560;2022-12-07T04:56:14;8.40;62.40
56729;DHT22;42612;52.232;7.560;2022-12-07T04:58:41;8.40;62.40
56729;DHT22;42612;52.232;7.560;2022-12-07T05:01:07;8.40;62.40
56729;DHT22;42612;52.232;7.560;2022-12-07T05:03:32;8.30;62.30
56729;DHT22;42612;52.232;7.560;2022-12-07T05:05:58;8.30;62.40
56729;DHT22;42612;52.232;7.560;2022-12-07T05:08:24;8.30;62.40
56729;DHT22;42612;52.232;7.560;2022-12-07T05:10:49;8.30;62.40
56729;DHT22;42612;52.232;7.560;2022-12-07T05:13:15;8.20;62.40
56729;DHT22;42612;52.232;7.560;2022-12-07T05:15:41;8.20;62.40
56729;DHT22;42612;52.232;7.560;2022-12-07T05:18:09;8.20;62.40
56729;DHT22;42612;52.232;7.560;2022-12-07T05:20:38;8.20;62.40
56729;DHT22;42612;52.232;7.560;2022-12-07T05:23:04;8.20;62.40
56729;DHT22;42612;52.232;7.560;2022-12-07T05:25:29;8.20;62.50
56729;DHT22;42612;52.232;7.560;2022-12-07T05:27:55;8.20;62.50
56729;DHT22;42612;52.232;7.560;2022-12-07T05:30:22;8.20;62.50
56729;DHT22;42612;52.232;7.560;2022-12-07T05:32:48;8.30;62.50
56729;DHT22;42612;52.232;7.560;2022-12-07T05:35:13;8.20;62.50
56729;DHT22;42612;52.232;7.560;2022-12-07T05:37:39;8.30;62.50
56729;DHT22;42612;52.232;7.560;2022-12-07T05:40:05;8.30;62.60
56729;DHT22;42612;52.232;7.560;2022-12-07T05:42:31;8.30;62.50
56729;DHT22;42612;52.232;7.560;2022-12-07T05:44:56;8.30;62.50
56729;DHT22;42612;52.232;7.560;2022-12-07T05:47:22;8.30;62.50
56729;DHT22;42612;52.232;7.560;2022-12-07T05:49:48;8.30;62.40
56729;DHT22;42612;52.232;7.560;2022-12-07T05:52:13;8.30;62.40
56729;DHT22;42612;52.232;7.560;2022-12-07T05:54:39;8.30;62.30
56729;DHT22;42612;52.232;7.560;2022-12-07T05:57:05;8.40;62.40
56729;DHT22;42612;52.232;7.560;2022-12-07T05:59:30;8.40;62.30
56729;DHT22;42612;52.232;7.560;2022-12-07T06:04:23;8.40;62.20
56729;DHT22;42612;52.232;7.560;2022-12-07T06:06:50;8.40;62.20
56729;DHT22;42612;52.232;7.560;2022-12-07T06:09:15;8.40;62.20
56729;DHT22;42612;52.232;7.560;2022-12-07T06:11:41;8.40;62.20
56729;DHT22;42612;52.232;7.560;2022-12-07T06:14:25;8.40;62.20
56729;DHT22;42612;52.232;7.560;2022-12-07T06:16:51;8.40;62.30
56729;DHT22;42612;52.232;7.560;2022-12-07T06:19:16;8.40;62.20
56729;DHT22;42612;52.232;7.560;2022-12-07T06:21:42;8.40;62.20
56729;DHT22;42612;52.232;7.560;2022-12-07T06:24:11;8.40;62.20
56729;DHT22;42612;52.232;7.560;2022-12-07T06:26:37;8.40;62.20
56729;DHT22;42612;52.232;7.560;2022-12-07T06:29:03;8.40;62.20
56729;DHT22;42612;52.232;7.560;2022-12-07T06:31:29;8.40;62.10
56729;DHT22;42612;52.232;7.560;2022-12-07T06:34:01;8.40;62.00
56729;DHT22;42612;52.232;7.560;2022-12-07T06:36:28;8.40;62.00
56729;DHT22;42612;52.232;7.560;2022-12-07T06:38:54;8.40;62.00
56729;DHT22;42612;52.232;7.560;2022-12-07T06:43:48;8.40;62.00
56729;DHT22;42612;52.232;7.560;2022-12-07T06:46:14;8.30;62.00
56729;DHT22;42612;52.232;7.560;2022-12-07T06:48:40;8.30;61.90
56729;DHT22;42612;52.232;7.560;2022-12-07T06:51:07;8.30;62.00
56729;DHT22;42612;52.232;7.560;2022-12-07T06:53:33;8.20;62.00
56729;DHT22;42612;52.232;7.560;2022-12-07T06:55:58;8.20;62.00
56729;DHT22;42612;52.232;7.560;2022-12-07T06:58:24;8.20;62.10
56729;DHT22;42612;52.232;7.560;2022-12-07T07:00:50;8.20;62.10
56729;DHT22;42612;52.232;7.560;2022-12-07T07:03:16;8.10;62.10
56729;DHT22;42612;52.232;7.560;2022-12-07T07:05:42;8.10;62.10
56729;DHT22;42612;52.232;7.560;2022-12-07T07:08:08;8.10;62.10
56729;DHT22;42612;52.232;7.560;2022-12-07T07:10:34;8.10;62.10
56729;DHT22;42612;52.232;7.560;2022-12-07T07:13:00;8.10;62.20
56729;DHT22;42612;52.232;7.560;2022-12-07T07:15:26;8.10;62.20
56729;DHT22;42612;52.232;7.560;2022-12-07T07:17:51;8.10;62.20
56729;DHT22;42612;52.232;7.560;2022-12-07T07:20:17;8.00;62.10
56729;DHT22;42612;52.232;7.560;2022-12-07T07:22:42;8.00;62.20
56729;DHT22;42612;52.232;7.560;2022-12-07T07:25:08;8.00;62.20
56729;DHT22;42612;52.232;7.560;2022-12-07T07:27:34;8.00;62.20
56729;DHT22;42612;52.232;7.560;2022-12-07T07:29:59;8.00;62.20
56729;DHT22;42612;52.232;7.560;2022-12-07T07:32:25;8.00;62.30
56729;DHT22;42612;52.232;7.560;2022-12-07T07:34:50;8.00;62.30
56729;DHT22;42612;52.232;7.560;2022-12-07T07:37:16;7.90;62.30
56729;DHT22;42612;52.232;7.560;2022-12-07T07:39:42;7.90;62.30
56729;DHT22;42612;52.232;7.560;2022-12-07T07:42:07;7.90;62.30
56729;DHT22;42612;52.232;7.560;2022-12-07T07:44:33;7.90;62.40
56729;DHT22;42612;52.232;7.560;2022-12-07T07:46:59;7.90;62.50
56729;DHT22;42612;52.232;7.560;2022-12-07T07:49:25;7.80;62.40
56729;DHT22;42612;52.232;7.560;2022-12-07T07:51:51;7.90;62.60
56729;DHT22;42612;52.232;7.560;2022-12-07T07:54:16;7.90;62.50
56729;DHT22;42612;52.232;7.560;2022-12-07T07:56:42;7.90;62.50
56729;DHT22;42612;52.232;7.560;2022-12-07T07:59:07;7.90;62.60
56729;DHT22;42612;52.232;7.560;2022-12-07T08:01:33;7.80;62.50
56729;DHT22;42612;52.232;7.560;2022-12-07T08:03:59;7.80;62.50
56729;DHT22;42612;52.232;7.560;2022-12-07T08:06:25;7.80;62.50
56729;DHT22;42612;52.232;7.560;2022-12-07T08:08:51;7.80;62.50
56729;DHT22;42612;52.232;7.560;2022-12-07T08:11:17;7.80;62.50
56729;DHT22;42612;52.232;7.560;2022-12-07T08:13:44;7.80;62.50
56729;DHT22;42612;52.232;7.560;2022-12-07T08:16:11;7.80;62.60
56729;DHT22;42612;52.232;7.560;2022-12-07T08:18:38;7.80;62.60
56729;DHT22;42612;52.232;7.560;2022-12-07T08:21:05;7.80;62.60
56729;DHT22;42612;52.232;7.560;2022-12-07T08:23:31;7.80;62.70
56729;DHT22;42612;52.232;7.560;2022-12-07T08:26:01;7.80;62.70
56729;DHT22;42612;52.232;7.560;2022-12-07T08:28:27;7.80;62.70
56729;DHT22;42612;52.232;7.560;2022-12-07T08:31:03;7.90;62.80
56729;DHT22;42612;52.232;7.560;2022-12-07T08:33:30;7.90;62.80
56729;DHT22;42612;52.232;7.560;2022-12-07T08:36:29;7.90;62.80
56729;DHT22;42612;52.232;7.560;2022-12-07T08:38:48;7.90;62.80
56729;DHT22;42612;52.232;7.560;2022-12-07T08:41:14;8.00;62.80
56729;DHT22;42612;52.232;7.560;2022-12-07T08:43:39;8.00;62.80
56729;DHT22;42612;52.232;7.560;2022-12-07T08:48:36;8.00;62.90
56729;DHT22;42612;52.232;7.560;2022-12-07T08:51:04;8.00;62.80
56729;DHT22;42612;52.232;7.560;2022-12-07T08:53:30;8.00;62.90
56729;DHT22;42612;52.232;7.560;2022-12-07T08:55:56;8.10;62.90
56729;DHT22;42612;52.232;7.560;2022-12-07T08:58:22;8.10;62.80
56729;DHT22;42612;52.232;7.560;2022-12-07T09:00:47;8.10;62.80
56729;DHT22;42612;52.232;7.560;2022-12-07T09:03:13;8.10;62.80
56729;DHT22;42612;52.232;7.560;2022-12-07T09:05:38;8.10;62.80
56729;DHT22;42612;52.232;7.560;2022-12-07T09:08:04;8.10;62.80
56729;DHT22;42612;52.232;7.560;2022-12-07T09:10:30;8.10;62.80
56729;DHT22;42612;52.232;7.560;2022-12-07T09:12:56;8.10;62.80
56729;DHT22;42612;52.232;7.560;2022-12-07T09:15:26;8.10;62.80
56729;DHT22;42612;52.232;7.560;2022-12-07T09:17:53;8.10;62.80
56729;DHT22;42612;52.232;7.560;2022-12-07T09:20:18;8.10;62.90
56729;DHT22;42612;52.232;7.560;2022-12-07T09:22:44;8.10;62.90
56729;DHT22;42612;52.232;7.560;2022-12-07T09:25:09;8.20;62.90
56729;DHT22;42612;52.232;7.560;2022-12-07T09:27:35;8.10;62.80
56729;DHT22;42612;52.232;7.560;2022-12-07T09:30:01;8.20;63.00
56729;DHT22;42612;52.232;7.560;2022-12-07T09:32:27;8.20;63.10
56729;DHT22;42612;52.232;7.560;2022-12-07T09:34:52;8.20;63.10
56729;DHT22;42612;52.232;7.560;2022-12-07T09:37:18;8.30;63.00
56729;DHT22;42612;52.232;7.560;2022-12-07T09:39:44;8.30;63.00
56729;DHT22;42612;52.232;7.560;2022-12-07T09:42:11;8.30;63.00
56729;DHT22;42612;52.232;7.560;2022-12-07T09:44:58;8.30;62.90
56729;DHT22;42612;52.232;7.560;2022-12-07T09:47:24;8.30;62.90
56729;DHT22;42612;52.232;7.560;2022-12-07T09:49:50;8.30;62.90
56729;DHT22;42612;52.232;7.560;2022-12-07T09:52:17;8.30;62.90
56729;DHT22;42612;52.232;7.560;2022-12-07T09:54:46;8.40;63.00
56729;DHT22;42612;52.232;7.560;2022-12-07T09:57:14;8.40;62.90
56729;DHT22;42612;52.232;7.560;2022-12-07T09:59:40;8.40;63.00
56729;DHT22;42612;52.232;7.560;2022-12-07T10:05:07;8.40;63.00
56729;DHT22;42612;52.232;7.560;2022-12-07T10:07:36;8.50;63.00
56729;DHT22;42612;52.232;7.560;2022-12-07T10:10:03;8.50;63.00
56729;DHT22;42612;52.232;7.560;2022-12-07T10:12:30;8.60;62.90
56729;DHT22;42612;52.232;7.560;2022-12-07T10:15:04;8.50;62.90
56729;DHT22;42612;52.232;7.560;2022-12-07T10:17:33;8.60;62.90
56729;DHT22;42612;52.232;7.560;2022-12-07T10:25:26;8.60;62.90
56729;DHT22;42612;52.232;7.560;2022-12-07T10:27:57;8.60;62.80
56729;DHT22;42612;52.232;7.560;2022-12-07T10:30:46;8.70;62.80
56729;DHT22;42612;52.232;7.560;2022-12-07T10:35:58;8.70;62.90
56729;DHT22;42612;52.232;7.560;2022-12-07T10:38:24;8.80;63.00
56729;DHT22;42612;52.232;7.560;2022-12-07T10:41:06;8.80;63.00
56729;DHT22;42612;52.232;7.560;2022-12-07T10:43:32;8.90;63.10
56729;DHT22;42612;52.232;7.560;2022-12-07T10:49:09;9.00;63.10
56729;DHT22;42612;52.232;7.560;2022-12-07T10:59:34;9.10;62.70
56729;DHT22;42612;52.232;7.560;2022-12-07T11:02:30;9.20;62.60
56729;DHT22;42612;52.232;7.560;2022-12-07T11:10:39;9.10;62.20
56729;DHT22;42612;52.232;7.560;2022-12-07T11:16:21;9.10;62.20
56729;DHT22;42612;52.232;7.560;2022-12-07T11:18:52;9.10;62.40
56729;DHT22;42612;52.232;7.560;2022-12-07T11:21:45;9.10;62.40
56729;DHT22;42612;52.232;7.560;2022-12-07T11:24:26;9.20;62.40
56729;DHT22;42612;52.232;7.560;2022-12-07T11:29:37;9.20;62.50
56729;DHT22;42612;52.232;7.560;2022-12-07T11:32:22;9.20;62.50
56729;DHT22;42612;52.232;7.560;2022-12-07T11:35:17;9.20;62.40
56729;DHT22;42612;52.232;7.560;2022-12-07T11:37:45;9.20;62.50
56729;DHT22;42612;52.232;7.560;2022-12-07T11:40:34;9.20;62.50
56729;DHT22;42612;52.232;7.560;2022-12-07T11:43:06;9.20;62.50
56729;DHT22;42612;52.232;7.560;2022-12-07T11:45:37;9.20;62.50
56729;DHT22;42612;52.232;7.560;2022-12-07T11:48:11;9.20;62.40
56729;DHT22;42612;52.232;7.560;2022-12-07T11:50:54;9.30;62.60
56729;DHT22;42612;52.232;7.560;2022-12-07T11:53:38;9.30;62.70
56729;DHT22;42612;52.232;7.560;2022-12-07T11:56:17;9.30;62.70
56729;DHT22;42612;52.232;7.560;2022-12-07T11:58:59;9.40;62.80
56729;DHT22;42612;52.232;7.560;2022-12-07T12:06:35;9.60;62.70
56729;DHT22;42612;52.232;7.560;2022-12-07T12:09:19;9.60;62.50
56729;DHT22;42612;52.232;7.560;2022-12-07T12:12:15;9.70;62.50
56729;DHT22;42612;52.232;7.560;2022-12-07T12:17:41;9.70;62.30
56729;DHT22;42612;52.232;7.560;2022-12-07T12:20:53;9.70;62.20
56729;DHT22;42612;52.232;7.560;2022-12-07T12:26:14;9.80;62.10
56729;DHT22;42612;52.232;7.560;2022-12-07T12:28:49;9.70;62.00
56729;DHT22;42612;52.232;7.560;2022-12-07T12:33:47;9.70;61.90
56729;DHT22;42612;52.232;7.560;2022-12-07T12:36:24;9.70;61.90
56729;DHT22;42612;52.232;7.560;2022-12-07T12:51:55;9.90;62.10
56729;DHT22;42612;52.232;7.560;2022-12-07T12:54:22;9.90;62.10
56729;DHT22;42612;52.232;7.560;2022-12-07T12:56:51;10.00;62.10
56729;DHT22;42612;52.232;7.560;2022-12-07T12:59:23;10.00;62.10
56729;DHT22;42612;52.232;7.560;2022-12-07T13:04:55;10.10;61.90
56729;DHT22;42612;52.232;7.560;2022-12-07T13:12:55;10.10;61.40
56729;DHT22;42612;52.232;7.560;2022-12-07T13:16:36;10.20;61.40
56729;DHT22;42612;52.232;7.560;2022-12-07T13:21:01;10.10;61.30
56729;DHT22;42612;52.232;7.560;2022-12-07T13:31:40;10.00;61.30
56729;DHT22;42612;52.232;7.560;2022-12-07T13:37:20;10.00;61.30
56729;DHT22;42612;52.232;7.560;2022-12-07T13:39:55;10.00;61.20
56729;DHT22;42612;52.232;7.560;2022-12-07T13:42:26;10.00;61.00
56729;DHT22;42612;52.232;7.560;2022-12-07T13:44:53;10.00;61.00
56729;DHT22;42612;52.232;7.560;2022-12-07T13:47:28;10.00;61.00
56729;DHT22;42612;52.232;7.560;2022-12-07T13:49:58;10.00;61.00
56729;DHT22;42612;52.232;7.560;2022-12-07T13:54:55;10.00;60.90
56729;DHT22;42612;52.232;7.560;2022-12-07T13:57:24;10.00;60.90
56729;DHT22;42612;52.232;7.560;2022-12-07T13:59:50;10.00;60.90
56729;DHT22;42612;52.232;7.560;2022-12-07T14:02:34;9.90;60.90
56729;DHT22;42612;52.232;7.560;2022-12-07T14:10:27;9.90;60.90
56729;DHT22;42612;52.232;7.560;2022-12-07T14:12:54;9.80;60.90
56729;DHT22;42612;52.232;7.560;2022-12-07T14:15:24;9.80;60.80
56729;DHT22;42612;52.232;7.560;2022-12-07T14:17:54;9.80;61.00
56729;DHT22;42612;52.232;7.560;2022-12-07T14:20:30;9.80;60.70
56729;DHT22;42612;52.232;7.560;2022-12-07T14:22:56;9.80;60.70
56729;DHT22;42612;52.232;7.560;2022-12-07T14:25:25;9.80;60.90
56729;DHT22;42612;52.232;7.560;2022-12-07T14:27:56;9.80;60.80
56729;DHT22;42612;52.232;7.560;2022-12-07T14:30:29;9.70;60.80
56729;DHT22;42612;52.232;7.560;2022-12-07T14:32:57;9.70;61.50
56729;DHT22;42612;52.232;7.560;2022-12-07T14:35:25;9.70;60.80
56729;DHT22;42612;52.232;7.560;2022-12-07T14:37:51;9.80;60.90
56729;DHT22;42612;52.232;7.560;2022-12-07T14:40:18;9.70;60.80
56729;DHT22;42612;52.232;7.560;2022-12-07T14:42:45;9.70;60.70
56729;DHT22;42612;52.232;7.560;2022-12-07T14:45:13;9.70;60.70
56729;DHT22;42612;52.232;7.560;2022-12-07T14:47:40;9.70;60.70
56729;DHT22;42612;52.232;7.560;2022-12-07T14:50:06;9.70;60.70
56729;DHT22;42612;52.232;7.560;2022-12-07T14:52:33;9.70;60.70
56729;DHT22;42612;52.232;7.560;2022-12-07T14:54:58;9.70;60.70
56729;DHT22;42612;52.232;7.560;2022-12-07T14:57:24;9.70;60.70
56729;DHT22;42612;52.232;7.560;2022-12-07T14:59:53;9.60;60.60
56729;DHT22;42612;52.232;7.560;2022-12-07T15:02:19;9.60;60.60
56729;DHT22;42612;52.232;7.560;2022-12-07T15:04:44;9.60;60.70
56729;DHT22;42612;52.232;7.560;2022-12-07T15:07:13;9.60;60.70
56729;DHT22;42612;52.232;7.560;2022-12-07T15:10:00;9.70;60.60
56729;DHT22;42612;52.232;7.560;2022-12-07T15:12:25;9.60;60.60
56729;DHT22;42612;52.232;7.560;2022-12-07T15:14:52;9.60;60.60
56729;DHT22;42612;52.232;7.560;2022-12-07T15:17:17;9.60;60.60
56729;DHT22;42612;52.232;7.560;2022-12-07T15:19:43;9.60;60.70
56729;DHT22;42612;52.232;7.560;2022-12-07T15:22:09;9.60;60.70
56729;DHT22;42612;52.232;7.560;2022-12-07T15:24:36;9.60;60.70
56729;DHT22;42612;52.232;7.560;2022-12-07T15:27:02;9.60;60.70
56729;DHT22;42612;52.232;7.560;2022-12-07T15:29:28;9.50;60.60
56729;DHT22;42612;52.232;7.560;2022-12-07T15:31:54;9.50;60.70
56729;DHT22;42612;52.232;7.560;2022-12-07T15:34:20;9.50;60.70
56729;DHT22;42612;52.232;7.560;2022-12-07T15:36:45;9.50;60.60
56729;DHT22;42612;52.232;7.560;2022-12-07T15:39:11;9.50;60.70
56729;DHT22;42612;52.232;7.560;2022-12-07T15:41:37;9.50;61.50
56729;DHT22;42612;52.232;7.560;2022-12-07T15:44:03;9.50;60.80
56729;DHT22;42612;52.232;7.560;2022-12-07T15:46:47;9.50;60.80
56729;DHT22;42612;52.232;7.560;2022-12-07T15:49:17;9.40;60.80
56729;DHT22;42612;52.232;7.560;2022-12-07T15:51:43;9.50;60.80
56729;DHT22;42612;52.232;7.560;2022-12-07T15:54:23;9.50;60.80
56729;DHT22;42612;52.232;7.560;2022-12-07T15:56:50;9.40;60.80
56729;DHT22;42612;52.232;7.560;2022-12-07T15:59:16;9.40;60.80
56729;DHT22;42612;52.232;7.560;2022-12-07T16:01:41;9.50;60.80
56729;DHT22;42612;52.232;7.560;2022-12-07T16:04:07;9.40;60.80
56729;DHT22;42612;52.232;7.560;2022-12-07T16:06:33;9.40;60.70
56729;DHT22;42612;52.232;7.560;2022-12-07T16:08:58;9.40;60.80
56729;DHT22;42612;52.232;7.560;2022-12-07T16:11:24;9.50;60.80
56729;DHT22;42612;52.232;7.560;2022-12-07T16:13:50;9.40;60.80
56729;DHT22;42612;52.232;7.560;2022-12-07T16:16:16;9.40;60.70
56729;DHT22;42612;52.232;7.560;2022-12-07T16:18:43;9.40;60.70
56729;DHT22;42612;52.232;7.560;2022-12-07T16:21:09;9.40;60.80
56729;DHT22;42612;52.232;7.560;2022-12-07T16:23:35;9.40;60.70
56729;DHT22;42612;52.232;7.560;2022-12-07T16:26:33;9.40;60.80
56729;DHT22;42612;52.232;7.560;2022-12-07T16:28:52;9.40;60.80
56729;DHT22;42612;52.232;7.560;2022-12-07T16:31:20;9.40;60.80
56729;DHT22;42612;52.232;7.560;2022-12-07T16:33:47;9.30;60.80
56729;DHT22;42612;52.232;7.560;2022-12-07T16:36:14;9.30;60.80
56729;DHT22;42612;52.232;7.560;2022-12-07T16:38:41;9.20;60.80
56729;DHT22;42612;52.232;7.560;2022-12-07T16:41:08;9.20;60.80
56729;DHT22;42612;52.232;7.560;2022-12-07T16:43:34;9.20;60.90
56729;DHT22;42612;52.232;7.560;2022-12-07T16:45:59;9.20;60.90
56729;DHT22;42612;52.232;7.560;2022-12-07T16:48:25;9.10;60.90
56729;DHT22;42612;52.232;7.560;2022-12-07T16:50:51;9.10;60.90
56729;DHT22;42612;52.232;7.560;2022-12-07T16:53:19;9.10;61.00
56729;DHT22;42612;52.232;7.560;2022-12-07T16:55:45;9.10;61.10
56729;DHT22;42612;52.232;7.560;2022-12-07T16:58:12;9.10;61.10
56729;DHT22;42612;52.232;7.560;2022-12-07T17:00:39;9.10;61.10
56729;DHT22;42612;52.232;7.560;2022-12-07T17:03:05;9.10;61.10
56729;DHT22;42612;52.232;7.560;2022-12-07T17:05:30;9.10;61.00
56729;DHT22;42612;52.232;7.560;2022-12-07T17:07:56;9.20;61.10
56729;DHT22;42612;52.232;7.560;2022-12-07T17:10:23;9.20;61.10
56729;DHT22;42612;52.232;7.560;2022-12-07T17:12:49;9.20;61.10
56729;DHT22;42612;52.232;7.560;2022-12-07T17:15:15;9.20;61.00
56729;DHT22;42612;52.232;7.560;2022-12-07T17:18:07;9.20;61.10
56729;DHT22;42612;52.232;7.560;2022-12-07T17:20:32;9.20;61.10
56729;DHT22;42612;52.232;7.560;2022-12-07T17:22:57;9.20;61.10
56729;DHT22;42612;52.232;7.560;2022-12-07T17:25:23;9.20;61.00
56729;DHT22;42612;52.232;7.560;2022-12-07T17:27:49;9.20;61.00
56729;DHT22;42612;52.232;7.560;2022-12-07T17:30:15;9.20;61.00
56729;DHT22;42612;52.232;7.560;2022-12-07T17:32:41;9.20;60.90
56729;DHT22;42612;52.232;7.560;2022-12-07T17:35:06;9.30;61.00
56729;DHT22;42612;52.232;7.560;2022-12-07T17:37:32;9.20;60.90
56729;DHT22;42612;52.232;7.560;2022-12-07T17:39:58;9.20;60.90
56729;DHT22;42612;52.232;7.560;2022-12-07T17:42:24;9.20;60.80
56729;DHT22;42612;52.232;7.560;2022-12-07T17:45:08;9.20;60.80
56729;DHT22;42612;52.232;7.560;2022-12-07T17:47:38;9.20;60.70
56729;DHT22;42612;52.232;7.560;2022-12-07T17:50:05;9.20;60.80
56729;DHT22;42612;52.232;7.560;2022-12-07T17:52:31;9.20;60.70
56729;DHT22;42612;52.232;7.560;2022-12-07T17:55:15;9.20;60.70
56729;DHT22;42612;52.232;7.560;2022-12-07T17:57:41;9.20;60.80
56729;DHT22;42612;52.232;7.560;2022-12-07T18:00:10;9.20;60.80
56729;DHT22;42612;52.232;7.560;2022-12-07T18:02:36;9.20;60.80